Weather at Leopoldsburg Airfield

Public forecast

Using degrees Celsius for public forecast. Weather courtesy of forecast.io.

Closest aviation weather report (METAR) to Leopoldsburg Airfield

Closest report is Kleine Brogel Air Base, 6.8 nm (12.6 km) ENE. Retrieved 2021/07/27 07:25 UTC (35 minutes ago):

EBBL 270725Z 21008KT 9999 SCT030 SCT045 BKN200 19/16 Q1011 BLU BLU

Closest aviation forecast (TAF) to Leopoldsburg Airfield

Forecast is more than 12 hours old.

Closest forecast is Kleine Brogel Air Base, 6.8 nm (12.6 km) ENE. Retrieved 2021/06/07 19:54 UTC (2 months ago):

TAF EBBL 071541Z 0719/0807 03005KT 9999 FEW050 BECMG 0800/0802 VRB03KT SKC